sensor_id;sensor_type;location;lat;lon;timestamp;temperature;humidity
41965;DHT22;50120;53.250;8.702;2022-11-15T00:01:45;7.30;99.90
41965;DHT22;50120;53.250;8.702;2022-11-15T00:04:10;7.30;99.90
41965;DHT22;50120;53.250;8.702;2022-11-15T00:06:36;7.30;99.90
41965;DHT22;50120;53.250;8.702;2022-11-15T00:09:02;7.20;99.90
41965;DHT22;50120;53.250;8.702;2022-11-15T00:11:28;7.20;99.90
41965;DHT22;50120;53.250;8.702;2022-11-15T00:13:56;7.20;99.90
41965;DHT22;50120;53.250;8.702;2022-11-15T00:16:22;7.20;99.90
41965;DHT22;50120;53.250;8.702;2022-11-15T00:18:48;7.20;99.90
41965;DHT22;50120;53.250;8.702;2022-11-15T00:21:15;7.20;99.90
41965;DHT22;50120;53.250;8.702;2022-11-15T00:23:40;7.20;99.90
41965;DHT22;50120;53.250;8.702;2022-11-15T00:26:06;7.20;99.90
41965;DHT22;50120;53.250;8.702;2022-11-15T00:28:32;7.20;99.90
41965;DHT22;50120;53.250;8.702;2022-11-15T00:31:01;7.20;99.90
41965;DHT22;50120;53.250;8.702;2022-11-15T00:33:27;7.10;99.90
41965;DHT22;50120;53.250;8.702;2022-11-15T00:35:52;7.10;99.90
41965;DHT22;50120;53.250;8.702;2022-11-15T00:38:18;7.00;99.90
41965;DHT22;50120;53.250;8.702;2022-11-15T00:40:43;7.00;99.90
41965;DHT22;50120;53.250;8.702;2022-11-15T00:43:09;7.00;99.90
41965;DHT22;50120;53.250;8.702;2022-11-15T00:45:34;7.00;99.90
41965;DHT22;50120;53.250;8.702;2022-11-15T00:48:00;7.00;99.90
41965;DHT22;50120;53.250;8.702;2022-11-15T00:50:26;7.00;99.90
41965;DHT22;50120;53.250;8.702;2022-11-15T00:52:51;7.00;99.90
41965;DHT22;50120;53.250;8.702;2022-11-15T00:55:17;7.00;99.90
41965;DHT22;50120;53.250;8.702;2022-11-15T00:57:44;7.00;99.90
41965;DHT22;50120;53.250;8.702;2022-11-15T01:00:10;6.90;99.90
41965;DHT22;50120;53.250;8.702;2022-11-15T01:02:36;7.00;99.90
41965;DHT22;50120;53.250;8.702;2022-11-15T01:05:02;7.00;99.90
41965;DHT22;50120;53.250;8.702;2022-11-15T01:07:27;7.00;99.90
41965;DHT22;50120;53.250;8.702;2022-11-15T01:09:53;7.00;99.90
41965;DHT22;50120;53.250;8.702;2022-11-15T01:12:18;7.00;99.90
41965;DHT22;50120;53.250;8.702;2022-11-15T01:14:44;7.00;99.90
41965;DHT22;50120;53.250;8.702;2022-11-15T01:17:09;7.00;99.90
41965;DHT22;50120;53.250;8.702;2022-11-15T01:19:35;7.00;99.90
41965;DHT22;50120;53.250;8.702;2022-11-15T01:22:00;7.00;99.90
41965;DHT22;50120;53.250;8.702;2022-11-15T01:24:26;7.00;99.90
41965;DHT22;50120;53.250;8.702;2022-11-15T01:26:52;7.10;99.90
41965;DHT22;50120;53.250;8.702;2022-11-15T01:29:17;7.00;99.90
41965;DHT22;50120;53.250;8.702;2022-11-15T01:31:43;7.10;99.90
41965;DHT22;50120;53.250;8.702;2022-11-15T01:34:08;7.00;99.90
41965;DHT22;50120;53.250;8.702;2022-11-15T01:36:34;7.00;99.90
41965;DHT22;50120;53.250;8.702;2022-11-15T01:39:00;7.00;99.90
41965;DHT22;50120;53.250;8.702;2022-11-15T01:41:27;6.90;99.90
41965;DHT22;50120;53.250;8.702;2022-11-15T01:43:53;6.80;99.90
41965;DHT22;50120;53.250;8.702;2022-11-15T01:48:51;6.90;99.90
41965;DHT22;50120;53.250;8.702;2022-11-15T01:51:17;6.90;99.90
41965;DHT22;50120;53.250;8.702;2022-11-15T01:53:45;6.80;99.90
41965;DHT22;50120;53.250;8.702;2022-11-15T01:56:13;6.80;99.90
41965;DHT22;50120;53.250;8.702;2022-11-15T01:58:40;6.80;99.90
41965;DHT22;50120;53.250;8.702;2022-11-15T02:01:06;6.80;99.90
41965;DHT22;50120;53.250;8.702;2022-11-15T02:03:43;6.80;99.90
41965;DHT22;50120;53.250;8.702;2022-11-15T02:06:09;6.80;99.90
41965;DHT22;50120;53.250;8.702;2022-11-15T02:08:35;6.80;99.90
41965;DHT22;50120;53.250;8.702;2022-11-15T02:11:01;6.70;99.90
41965;DHT22;50120;53.250;8.702;2022-11-15T02:13:26;6.70;99.90
41965;DHT22;50120;53.250;8.702;2022-11-15T02:15:58;6.70;99.90
41965;DHT22;50120;53.250;8.702;2022-11-15T02:18:32;6.70;99.90
41965;DHT22;50120;53.250;8.702;2022-11-15T02:23:53;6.60;99.90
41965;DHT22;50120;53.250;8.702;2022-11-15T02:26:37;6.60;99.90
41965;DHT22;50120;53.250;8.702;2022-11-15T02:36:35;6.60;99.90
41965;DHT22;50120;53.250;8.702;2022-11-15T02:39:06;6.60;99.90
41965;DHT22;50120;53.250;8.702;2022-11-15T02:41:46;6.70;99.90
41965;DHT22;50120;53.250;8.702;2022-11-15T02:46:44;6.70;99.90
41965;DHT22;50120;53.250;8.702;2022-11-15T02:49:31;6.80;99.90
41965;DHT22;50120;53.250;8.702;2022-11-15T02:51:57;6.80;99.90
41965;DHT22;50120;53.250;8.702;2022-11-15T02:54:24;6.90;99.90
41965;DHT22;50120;53.250;8.702;2022-11-15T02:56:50;6.90;99.90
41965;DHT22;50120;53.250;8.702;2022-11-15T03:04:33;7.10;99.90
41965;DHT22;50120;53.250;8.702;2022-11-15T03:12:10;7.20;99.90
41965;DHT22;50120;53.250;8.702;2022-11-15T03:14:40;7.10;99.90
41965;DHT22;50120;53.250;8.702;2022-11-15T03:19:50;7.30;99.90
41965;DHT22;50120;53.250;8.702;2022-11-15T03:22:17;7.40;99.90
41965;DHT22;50120;53.250;8.702;2022-11-15T03:24:45;7.40;99.90
41965;DHT22;50120;53.250;8.702;2022-11-15T03:27:12;7.50;99.90
41965;DHT22;50120;53.250;8.702;2022-11-15T03:29:41;7.50;99.90
41965;DHT22;50120;53.250;8.702;2022-11-15T03:32:11;7.60;99.90
41965;DHT22;50120;53.250;8.702;2022-11-15T03:34:39;7.60;99.90
41965;DHT22;50120;53.250;8.702;2022-11-15T03:37:06;7.60;99.90
41965;DHT22;50120;53.250;8.702;2022-11-15T03:39:32;7.60;99.90
41965;DHT22;50120;53.250;8.702;2022-11-15T03:47:22;7.80;99.90
41965;DHT22;50120;53.250;8.702;2022-11-15T03:49:50;7.80;99.90
41965;DHT22;50120;53.250;8.702;2022-11-15T03:52:18;7.80;99.90
41965;DHT22;50120;53.250;8.702;2022-11-15T03:54:47;7.80;99.90
41965;DHT22;50120;53.250;8.702;2022-11-15T03:57:13;7.90;99.90
41965;DHT22;50120;53.250;8.702;2022-11-15T03:59:39;7.90;99.90
41965;DHT22;50120;53.250;8.702;2022-11-15T04:02:04;7.90;99.90
41965;DHT22;50120;53.250;8.702;2022-11-15T04:04:30;7.90;99.90
41965;DHT22;50120;53.250;8.702;2022-11-15T04:06:55;8.00;99.90
41965;DHT22;50120;53.250;8.702;2022-11-15T04:09:21;8.00;99.90
41965;DHT22;50120;53.250;8.702;2022-11-15T04:11:46;8.00;99.90
41965;DHT22;50120;53.250;8.702;2022-11-15T04:14:12;8.10;99.90
41965;DHT22;50120;53.250;8.702;2022-11-15T04:16:37;8.10;99.90
41965;DHT22;50120;53.250;8.702;2022-11-15T04:19:03;8.10;99.90
41965;DHT22;50120;53.250;8.702;2022-11-15T04:21:47;8.20;99.90
41965;DHT22;50120;53.250;8.702;2022-11-15T04:24:32;8.20;99.90
41965;DHT22;50120;53.250;8.702;2022-11-15T04:26:57;8.20;99.90
41965;DHT22;50120;53.250;8.702;2022-11-15T04:29:23;8.20;99.90
41965;DHT22;50120;53.250;8.702;2022-11-15T04:32:04;8.20;99.90
41965;DHT22;50120;53.250;8.702;2022-11-15T04:34:30;8.20;99.90
41965;DHT22;50120;53.250;8.702;2022-11-15T04:36:56;8.20;99.90
41965;DHT22;50120;53.250;8.702;2022-11-15T04:39:36;8.30;99.90
41965;DHT22;50120;53.250;8.702;2022-11-15T04:42:02;8.30;99.90
41965;DHT22;50120;53.250;8.702;2022-11-15T04:44:28;8.30;99.90
41965;DHT22;50120;53.250;8.702;2022-11-15T04:46:53;8.30;99.90
41965;DHT22;50120;53.250;8.702;2022-11-15T04:49:19;8.30;99.90
41965;DHT22;50120;53.250;8.702;2022-11-15T04:51:44;8.30;99.90
41965;DHT22;50120;53.250;8.702;2022-11-15T04:54:10;8.30;99.90
41965;DHT22;50120;53.250;8.702;2022-11-15T04:56:36;8.40;99.90
41965;DHT22;50120;53.250;8.702;2022-11-15T04:59:02;8.40;99.90
41965;DHT22;50120;53.250;8.702;2022-11-15T05:01:28;8.30;99.90
41965;DHT22;50120;53.250;8.702;2022-11-15T05:03:53;8.40;99.90
41965;DHT22;50120;53.250;8.702;2022-11-15T05:06:37;8.40;99.90
41965;DHT22;50120;53.250;8.702;2022-11-15T05:09:03;8.40;99.90
41965;DHT22;50120;53.250;8.702;2022-11-15T05:11:29;8.40;99.90
41965;DHT22;50120;53.250;8.702;2022-11-15T05:13:55;8.50;99.90
41965;DHT22;50120;53.250;8.702;2022-11-15T05:16:21;8.40;99.90
41965;DHT22;50120;53.250;8.702;2022-11-15T05:18:53;8.50;99.90
41965;DHT22;50120;53.250;8.702;2022-11-15T05:21:19;8.50;99.90
41965;DHT22;50120;53.250;8.702;2022-11-15T05:23:44;8.50;99.90
41965;DHT22;50120;53.250;8.702;2022-11-15T05:26:10;8.60;99.90
41965;DHT22;50120;53.250;8.702;2022-11-15T05:28:36;8.60;99.90
41965;DHT22;50120;53.250;8.702;2022-11-15T05:31:02;8.60;99.90
41965;DHT22;50120;53.250;8.702;2022-11-15T05:33:28;8.60;99.90
41965;DHT22;50120;53.250;8.702;2022-11-15T05:36:02;8.60;99.90
41965;DHT22;50120;53.250;8.702;2022-11-15T05:38:29;8.60;99.90
41965;DHT22;50120;53.250;8.702;2022-11-15T05:40:55;8.70;99.90
41965;DHT22;50120;53.250;8.702;2022-11-15T05:43:21;8.70;99.90
41965;DHT22;50120;53.250;8.702;2022-11-15T05:45:47;8.70;99.90
41965;DHT22;50120;53.250;8.702;2022-11-15T05:48:13;8.70;99.90
41965;DHT22;50120;53.250;8.702;2022-11-15T05:50:40;8.70;99.90
41965;DHT22;50120;53.250;8.702;2022-11-15T05:53:06;8.70;99.90
41965;DHT22;50120;53.250;8.702;2022-11-15T05:55:33;8.70;99.90
41965;DHT22;50120;53.250;8.702;2022-11-15T05:57:59;8.70;99.90
41965;DHT22;50120;53.250;8.702;2022-11-15T06:00:25;8.80;99.90
41965;DHT22;50120;53.250;8.702;2022-11-15T06:02:51;8.80;99.90
41965;DHT22;50120;53.250;8.702;2022-11-15T06:05:16;8.80;99.90
41965;DHT22;50120;53.250;8.702;2022-11-15T06:07:42;8.80;99.90
41965;DHT22;50120;53.250;8.702;2022-11-15T06:10:09;9.00;99.90
41965;DHT22;50120;53.250;8.702;2022-11-15T06:12:34;8.80;99.90
41965;DHT22;50120;53.250;8.702;2022-11-15T06:15:00;8.80;99.90
41965;DHT22;50120;53.250;8.702;2022-11-15T06:17:25;8.80;99.90
41965;DHT22;50120;53.250;8.702;2022-11-15T06:19:51;8.90;99.90
41965;DHT22;50120;53.250;8.702;2022-11-15T06:22:17;8.90;99.90
41965;DHT22;50120;53.250;8.702;2022-11-15T06:24:42;8.80;99.90
41965;DHT22;50120;53.250;8.702;2022-11-15T06:27:10;8.90;99.90
41965;DHT22;50120;53.250;8.702;2022-11-15T06:29:36;8.90;99.90
41965;DHT22;50120;53.250;8.702;2022-11-15T06:32:01;8.90;99.90
41965;DHT22;50120;53.250;8.702;2022-11-15T06:34:27;8.90;99.90
41965;DHT22;50120;53.250;8.702;2022-11-15T06:36:52;8.90;99.90
41965;DHT22;50120;53.250;8.702;2022-11-15T06:39:18;9.00;99.90
41965;DHT22;50120;53.250;8.702;2022-11-15T06:41:43;9.00;99.90
41965;DHT22;50120;53.250;8.702;2022-11-15T06:44:09;9.00;99.90
41965;DHT22;50120;53.250;8.702;2022-11-15T06:46:34;9.00;99.90
41965;DHT22;50120;53.250;8.702;2022-11-15T06:49:00;9.10;99.90
41965;DHT22;50120;53.250;8.702;2022-11-15T06:51:25;9.10;99.90
41965;DHT22;50120;53.250;8.702;2022-11-15T06:53:51;9.10;99.90
41965;DHT22;50120;53.250;8.702;2022-11-15T06:56:17;9.10;99.90
41965;DHT22;50120;53.250;8.702;2022-11-15T06:58:42;9.20;99.90
41965;DHT22;50120;53.250;8.702;2022-11-15T07:01:10;9.20;99.90
41965;DHT22;50120;53.250;8.702;2022-11-15T07:03:37;9.20;99.90
41965;DHT22;50120;53.250;8.702;2022-11-15T07:06:03;9.20;99.90
41965;DHT22;50120;53.250;8.702;2022-11-15T07:08:29;9.30;99.90
41965;DHT22;50120;53.250;8.702;2022-11-15T07:10:57;9.30;99.90
41965;DHT22;50120;53.250;8.702;2022-11-15T07:13:24;9.30;99.90
41965;DHT22;50120;53.250;8.702;2022-11-15T07:15:50;9.40;99.90
41965;DHT22;50120;53.250;8.702;2022-11-15T07:18:16;9.40;99.90
41965;DHT22;50120;53.250;8.702;2022-11-15T07:20:42;9.40;99.90
41965;DHT22;50120;53.250;8.702;2022-11-15T07:23:07;9.50;99.90
41965;DHT22;50120;53.250;8.702;2022-11-15T07:25:33;9.50;99.90
41965;DHT22;50120;53.250;8.702;2022-11-15T07:27:59;9.50;99.90
41965;DHT22;50120;53.250;8.702;2022-11-15T07:30:25;9.50;99.90
41965;DHT22;50120;53.250;8.702;2022-11-15T07:32:52;9.50;99.90
41965;DHT22;50120;53.250;8.702;2022-11-15T07:35:18;9.60;99.90
41965;DHT22;50120;53.250;8.702;2022-11-15T07:37:44;9.60;99.90
41965;DHT22;50120;53.250;8.702;2022-11-15T07:40:09;9.60;99.90
41965;DHT22;50120;53.250;8.702;2022-11-15T07:42:35;9.70;99.90
41965;DHT22;50120;53.250;8.702;2022-11-15T07:45:20;9.70;99.90
41965;DHT22;50120;53.250;8.702;2022-11-15T07:47:46;9.80;99.90
41965;DHT22;50120;53.250;8.702;2022-11-15T07:50:12;9.80;99.90
41965;DHT22;50120;53.250;8.702;2022-11-15T07:52:37;9.90;99.90
41965;DHT22;50120;53.250;8.702;2022-11-15T07:55:03;10.00;99.90
41965;DHT22;50120;53.250;8.702;2022-11-15T07:57:29;10.10;99.90
41965;DHT22;50120;53.250;8.702;2022-11-15T07:59:55;10.10;99.90
41965;DHT22;50120;53.250;8.702;2022-11-15T08:02:20;10.20;99.90
41965;DHT22;50120;53.250;8.702;2022-11-15T08:04:46;10.30;99.90
41965;DHT22;50120;53.250;8.702;2022-11-15T08:07:12;10.30;99.90
41965;DHT22;50120;53.250;8.702;2022-11-15T08:09:38;10.40;99.90
41965;DHT22;50120;53.250;8.702;2022-11-15T08:12:03;10.40;99.90
41965;DHT22;50120;53.250;8.702;2022-11-15T08:14:29;10.50;99.90
41965;DHT22;50120;53.250;8.702;2022-11-15T08:16:55;10.50;99.90
41965;DHT22;50120;53.250;8.702;2022-11-15T08:19:20;10.60;99.90
41965;DHT22;50120;53.250;8.702;2022-11-15T08:21:46;10.70;99.90
41965;DHT22;50120;53.250;8.702;2022-11-15T08:24:11;10.70;99.90
41965;DHT22;50120;53.250;8.702;2022-11-15T08:26:38;10.80;99.90
41965;DHT22;50120;53.250;8.702;2022-11-15T08:29:05;10.80;99.90
41965;DHT22;50120;53.250;8.702;2022-11-15T08:31:30;10.80;99.90
41965;DHT22;50120;53.250;8.702;2022-11-15T08:33:56;10.90;99.90
41965;DHT22;50120;53.250;8.702;2022-11-15T08:36:21;10.90;99.90
41965;DHT22;50120;53.250;8.702;2022-11-15T08:38:47;10.90;99.90
41965;DHT22;50120;53.250;8.702;2022-11-15T08:41:13;10.90;99.90
41965;DHT22;50120;53.250;8.702;2022-11-15T08:43:42;10.90;99.90
41965;DHT22;50120;53.250;8.702;2022-11-15T08:46:09;11.00;99.90
41965;DHT22;50120;53.250;8.702;2022-11-15T08:48:37;11.00;99.90
41965;DHT22;50120;53.250;8.702;2022-11-15T08:51:02;11.00;99.90
41965;DHT22;50120;53.250;8.702;2022-11-15T08:53:28;11.00;99.90
41965;DHT22;50120;53.250;8.702;2022-11-15T08:55:53;11.00;99.90
41965;DHT22;50120;53.250;8.702;2022-11-15T08:58:19;11.10;99.90
41965;DHT22;50120;53.250;8.702;2022-11-15T09:00:45;11.10;99.90
41965;DHT22;50120;53.250;8.702;2022-11-15T09:03:10;11.30;99.90
41965;DHT22;50120;53.250;8.702;2022-11-15T09:05:36;11.10;99.90
41965;DHT22;50120;53.250;8.702;2022-11-15T09:08:02;11.20;99.90
41965;DHT22;50120;53.250;8.702;2022-11-15T09:10:28;11.20;99.90
41965;DHT22;50120;53.250;8.702;2022-11-15T09:12:54;11.20;99.90
41965;DHT22;50120;53.250;8.702;2022-11-15T09:15:21;11.30;99.90
41965;DHT22;50120;53.250;8.702;2022-11-15T09:17:47;11.30;99.90
41965;DHT22;50120;53.250;8.702;2022-11-15T09:20:12;11.40;99.90
41965;DHT22;50120;53.250;8.702;2022-11-15T09:22:38;11.40;99.90
41965;DHT22;50120;53.250;8.702;2022-11-15T09:25:04;11.40;99.90
41965;DHT22;50120;53.250;8.702;2022-11-15T09:27:30;11.40;99.90
41965;DHT22;50120;53.250;8.702;2022-11-15T09:29:56;11.40;99.90
41965;DHT22;50120;53.250;8.702;2022-11-15T09:32:21;11.50;99.90
41965;DHT22;50120;53.250;8.702;2022-11-15T09:34:50;11.40;99.90
41965;DHT22;50120;53.250;8.702;2022-11-15T09:37:16;11.50;99.90
41965;DHT22;50120;53.250;8.702;2022-11-15T09:39:41;11.50;99.90
41965;DHT22;50120;53.250;8.702;2022-11-15T09:50:12;11.60;99.90
41965;DHT22;50120;53.250;8.702;2022-11-15T09:52:41;11.60;99.90
41965;DHT22;50120;53.250;8.702;2022-11-15T09:55:11;11.60;99.90
41965;DHT22;50120;53.250;8.702;2022-11-15T10:00:27;11.70;99.90
41965;DHT22;50120;53.250;8.702;2022-11-15T10:05:37;11.70;99.90
41965;DHT22;50120;53.250;8.702;2022-11-15T10:08:06;11.70;99.90
41965;DHT22;50120;53.250;8.702;2022-11-15T10:10:39;11.80;99.90
41965;DHT22;50120;53.250;8.702;2022-11-15T10:13:09;11.90;99.90
41965;DHT22;50120;53.250;8.702;2022-11-15T10:15:37;12.10;99.90
41965;DHT22;50120;53.250;8.702;2022-11-15T10:20:30;12.40;99.90
41965;DHT22;50120;53.250;8.702;2022-11-15T10:23:04;12.50;99.90
41965;DHT22;50120;53.250;8.702;2022-11-15T10:25:31;12.70;99.90
41965;DHT22;50120;53.250;8.702;2022-11-15T10:27:59;12.80;99.90
41965;DHT22;50120;53.250;8.702;2022-11-15T10:30:30;12.90;99.90
41965;DHT22;50120;53.250;8.702;2022-11-15T10:32:56;12.90;99.90
41965;DHT22;50120;53.250;8.702;2022-11-15T10:35:26;12.80;99.90
41965;DHT22;50120;53.250;8.702;2022-11-15T10:37:56;12.80;99.90
41965;DHT22;50120;53.250;8.702;2022-11-15T10:40:29;12.80;99.90
41965;DHT22;50120;53.250;8.702;2022-11-15T10:43:15;12.80;99.90
41965;DHT22;50120;53.250;8.702;2022-11-15T10:45:40;12.80;99.90
41965;DHT22;50120;53.250;8.702;2022-11-15T10:50:38;12.80;99.90
41965;DHT22;50120;53.250;8.702;2022-11-15T10:53:04;12.80;99.90
41965;DHT22;50120;53.250;8.702;2022-11-15T10:55:37;12.80;99.90
41965;DHT22;50120;53.250;8.702;2022-11-15T11:00:47;12.90;99.90
41965;DHT22;50120;53.250;8.702;2022-11-15T11:06:02;13.00;99.90
41965;DHT22;50120;53.250;8.702;2022-11-15T11:08:28;13.10;99.90
41965;DHT22;50120;53.250;8.702;2022-11-15T11:10:54;13.30;99.90
41965;DHT22;50120;53.250;8.702;2022-11-15T11:13:24;13.40;99.90
41965;DHT22;50120;53.250;8.702;2022-11-15T11:21:08;13.70;99.90
41965;DHT22;50120;53.250;8.702;2022-11-15T11:26:27;13.80;99.90
41965;DHT22;50120;53.250;8.702;2022-11-15T11:29:02;13.80;99.90
41965;DHT22;50120;53.250;8.702;2022-11-15T11:34:20;13.80;99.90
41965;DHT22;50120;53.250;8.702;2022-11-15T11:47:23;13.90;99.90
41965;DHT22;50120;53.250;8.702;2022-11-15T11:49:51;14.00;99.90
41965;DHT22;50120;53.250;8.702;2022-11-15T11:52:22;14.10;99.90
41965;DHT22;50120;53.250;8.702;2022-11-15T11:54:53;14.20;99.90
41965;DHT22;50120;53.250;8.702;2022-11-15T11:59:50;14.40;99.90
41965;DHT22;50120;53.250;8.702;2022-11-15T12:02:21;14.50;99.90
41965;DHT22;50120;53.250;8.702;2022-11-15T12:04:51;14.40;99.90
41965;DHT22;50120;53.250;8.702;2022-11-15T12:07:24;14.40;99.90
41965;DHT22;50120;53.250;8.702;2022-11-15T12:09:55;14.40;99.90
41965;DHT22;50120;53.250;8.702;2022-11-15T12:15:04;14.30;99.90
41965;DHT22;50120;53.250;8.702;2022-11-15T12:17:35;14.20;99.90
41965;DHT22;50120;53.250;8.702;2022-11-15T12:20:03;14.10;99.90
41965;DHT22;50120;53.250;8.702;2022-11-15T12:25:23;14.10;99.90
41965;DHT22;50120;53.250;8.702;2022-11-15T12:30:38;14.00;99.90
41965;DHT22;50120;53.250;8.702;2022-11-15T12:33:05;14.00;99.90
41965;DHT22;50120;53.250;8.702;2022-11-15T12:35:41;14.00;99.90
41965;DHT22;50120;53.250;8.702;2022-11-15T12:38:13;14.10;99.90
41965;DHT22;50120;53.250;8.702;2022-11-15T12:41:16;14.10;99.90
41965;DHT22;50120;53.250;8.702;2022-11-15T12:43:43;14.10;99.90
41965;DHT22;50120;53.250;8.702;2022-11-15T12:46:13;14.10;99.90
41965;DHT22;50120;53.250;8.702;2022-11-15T12:51:09;14.10;99.90
41965;DHT22;50120;53.250;8.702;2022-11-15T12:53:34;14.10;99.90
41965;DHT22;50120;53.250;8.702;2022-11-15T12:58:40;14.10;99.90
41965;DHT22;50120;53.250;8.702;2022-11-15T13:01:06;14.10;99.90
41965;DHT22;50120;53.250;8.702;2022-11-15T13:03:32;14.10;99.90
41965;DHT22;50120;53.250;8.702;2022-11-15T13:06:00;14.00;99.90
41965;DHT22;50120;53.250;8.702;2022-11-15T13:08:36;14.00;99.90
41965;DHT22;50120;53.250;8.702;2022-11-15T13:13:46;14.00;99.90
41965;DHT22;50120;53.250;8.702;2022-11-15T13:16:12;13.90;99.90
41965;DHT22;50120;53.250;8.702;2022-11-15T13:18:43;13.90;99.90
41965;DHT22;50120;53.250;8.702;2022-11-15T13:21:24;14.00;99.90
41965;DHT22;50120;53.250;8.702;2022-11-15T13:24:10;14.00;99.90
41965;DHT22;50120;53.250;8.702;2022-11-15T13:26:38;14.00;99.90
41965;DHT22;50120;53.250;8.702;2022-11-15T13:29:04;14.10;99.90
41965;DHT22;50120;53.250;8.702;2022-11-15T13:31:34;14.10;99.90
41965;DHT22;50120;53.250;8.702;2022-11-15T13:34:02;14.20;99.90
41965;DHT22;50120;53.250;8.702;2022-11-15T13:36:32;14.20;99.90
41965;DHT22;50120;53.250;8.702;2022-11-15T13:39:14;14.20;99.90
41965;DHT22;50120;53.250;8.702;2022-11-15T13:41:49;14.20;99.90
41965;DHT22;50120;53.250;8.702;2022-11-15T13:44:25;14.20;99.90
41965;DHT22;50120;53.250;8.702;2022-11-15T13:47:13;14.20;99.90
41965;DHT22;50120;53.250;8.702;2022-11-15T13:49:39;14.30;99.90
41965;DHT22;50120;53.250;8.702;2022-11-15T13:52:06;14.20;99.90
41965;DHT22;50120;53.250;8.702;2022-11-15T13:57:05;14.30;99.90
41965;DHT22;50120;53.250;8.702;2022-11-15T13:59:35;14.30;99.90
41965;DHT22;50120;53.250;8.702;2022-11-15T14:02:11;14.30;99.90
41965;DHT22;50120;53.250;8.702;2022-11-15T14:04:38;14.20;99.90
41965;DHT22;50120;53.250;8.702;2022-11-15T14:07:04;14.20;99.90
41965;DHT22;50120;53.250;8.702;2022-11-15T14:09:34;14.20;99.90
41965;DHT22;50120;53.250;8.702;2022-11-15T14:12:00;14.10;99.90
41965;DHT22;50120;53.250;8.702;2022-11-15T14:14:27;14.20;99.90
41965;DHT22;50120;53.250;8.702;2022-11-15T14:16:55;14.10;99.90
41965;DHT22;50120;53.250;8.702;2022-11-15T14:24:31;14.10;99.90
41965;DHT22;50120;53.250;8.702;2022-11-15T14:29:43;14.00;99.90
41965;DHT22;50120;53.250;8.702;2022-11-15T14:32:12;14.00;99.90
41965;DHT22;50120;53.250;8.702;2022-11-15T14:34:38;14.00;99.90
41965;DHT22;50120;53.250;8.702;2022-11-15T14:37:04;13.90;99.90
41965;DHT22;50120;53.250;8.702;2022-11-15T14:39:29;13.80;99.90
41965;DHT22;50120;53.250;8.702;2022-11-15T14:41:55;13.80;99.90
41965;DHT22;50120;53.250;8.702;2022-11-15T14:44:21;13.80;99.90
41965;DHT22;50120;53.250;8.702;2022-11-15T14:46:47;13.70;99.90
41965;DHT22;50120;53.250;8.702;2022-11-15T14:49:13;13.60;99.90
41965;DHT22;50120;53.250;8.702;2022-11-15T14:51:40;13.70;99.90
41965;DHT22;50120;53.250;8.702;2022-11-15T14:54:09;13.60;99.90
41965;DHT22;50120;53.250;8.702;2022-11-15T14:56:35;13.60;99.90
41965;DHT22;50120;53.250;8.702;2022-11-15T14:59:01;13.50;99.90
41965;DHT22;50120;53.250;8.702;2022-11-15T15:01:26;13.50;99.90
41965;DHT22;50120;53.250;8.702;2022-11-15T15:03:52;13.50;99.90
41965;DHT22;50120;53.250;8.702;2022-11-15T15:06:21;13.40;99.90
41965;DHT22;50120;53.250;8.702;2022-11-15T15:08:46;13.40;99.90
41965;DHT22;50120;53.250;8.702;2022-11-15T15:11:21;13.20;99.90
41965;DHT22;50120;53.250;8.702;2022-11-15T15:13:47;13.20;99.90
41965;DHT22;50120;53.250;8.702;2022-11-15T15:16:12;13.10;99.90
41965;DHT22;50120;53.250;8.702;2022-11-15T15:18:38;13.10;99.90
41965;DHT22;50120;53.250;8.702;2022-11-15T15:21:04;13.00;99.90
41965;DHT22;50120;53.250;8.702;2022-11-15T15:23:38;12.90;99.90
41965;DHT22;50120;53.250;8.702;2022-11-15T15:26:03;12.80;99.90
41965;DHT22;50120;53.250;8.702;2022-11-15T15:28:29;12.70;99.90
41965;DHT22;50120;53.250;8.702;2022-11-15T15:30:55;12.70;99.90
41965;DHT22;50120;53.250;8.702;2022-11-15T15:33:20;12.60;99.90
41965;DHT22;50120;53.250;8.702;2022-11-15T15:35:46;12.50;99.90
41965;DHT22;50120;53.250;8.702;2022-11-15T15:38:12;12.50;99.90
41965;DHT22;50120;53.250;8.702;2022-11-15T15:40:37;12.40;99.90
41965;DHT22;50120;53.250;8.702;2022-11-15T15:43:03;12.30;99.90
41965;DHT22;50120;53.250;8.702;2022-11-15T15:45:28;12.40;99.90
41965;DHT22;50120;53.250;8.702;2022-11-15T15:47:55;12.30;99.90
41965;DHT22;50120;53.250;8.702;2022-11-15T15:52:46;12.30;99.90
41965;DHT22;50120;53.250;8.702;2022-11-15T15:55:12;12.30;99.90
41965;DHT22;50120;53.250;8.702;2022-11-15T15:57:38;12.30;99.90
41965;DHT22;50120;53.250;8.702;2022-11-15T16:00:04;12.20;99.90
41965;DHT22;50120;53.250;8.702;2022-11-15T16:02:30;12.20;99.90
41965;DHT22;50120;53.250;8.702;2022-11-15T16:04:55;12.20;99.90
41965;DHT22;50120;53.250;8.702;2022-11-15T16:07:21;12.10;99.90
41965;DHT22;50120;53.250;8.702;2022-11-15T16:09:49;12.10;99.90
41965;DHT22;50120;53.250;8.702;2022-11-15T16:12:28;12.10;99.90
41965;DHT22;50120;53.250;8.702;2022-11-15T16:14:53;12.00;99.90
41965;DHT22;50120;53.250;8.702;2022-11-15T16:17:30;12.00;99.90
41965;DHT22;50120;53.250;8.702;2022-11-15T16:19:56;12.00;99.90
41965;DHT22;50120;53.250;8.702;2022-11-15T16:22:22;12.00;99.90
41965;DHT22;50120;53.250;8.702;2022-11-15T16:24:48;12.00;99.90
41965;DHT22;50120;53.250;8.702;2022-11-15T16:27:17;11.80;99.90
41965;DHT22;50120;53.250;8.702;2022-11-15T16:29:44;11.90;99.90
41965;DHT22;50120;53.250;8.702;2022-11-15T16:32:10;11.80;99.90
41965;DHT22;50120;53.250;8.702;2022-11-15T16:34:35;11.80;99.90
41965;DHT22;50120;53.250;8.702;2022-11-15T16:37:01;11.80;99.90
41965;DHT22;50120;53.250;8.702;2022-11-15T16:39:27;11.70;99.90
41965;DHT22;50120;53.250;8.702;2022-11-15T16:41:56;11.70;99.90
41965;DHT22;50120;53.250;8.702;2022-11-15T16:44:22;11.70;99.90
41965;DHT22;50120;53.250;8.702;2022-11-15T16:46:49;11.60;99.90
41965;DHT22;50120;53.250;8.702;2022-11-15T16:49:16;11.60;99.90
41965;DHT22;50120;53.250;8.702;2022-11-15T16:51:42;11.60;99.90
41965;DHT22;50120;53.250;8.702;2022-11-15T16:54:10;11.60;99.90
41965;DHT22;50120;53.250;8.702;2022-11-15T16:56:35;11.70;99.90
41965;DHT22;50120;53.250;8.702;2022-11-15T16:59:01;11.60;99.90
41965;DHT22;50120;53.250;8.702;2022-11-15T17:01:27;11.70;99.90
41965;DHT22;50120;53.250;8.702;2022-11-15T17:03:53;11.70;99.90
41965;DHT22;50120;53.250;8.702;2022-11-15T17:06:19;11.70;99.90
41965;DHT22;50120;53.250;8.702;2022-11-15T17:08:45;11.70;99.90
41965;DHT22;50120;53.250;8.702;2022-11-15T17:11:15;11.60;99.90
41965;DHT22;50120;53.250;8.702;2022-11-15T17:13:40;11.70;99.90
41965;DHT22;50120;53.250;8.702;2022-11-15T17:16:07;11.70;99.90
41965;DHT22;50120;53.250;8.702;2022-11-15T17:18:34;11.70;99.90
41965;DHT22;50120;53.250;8.702;2022-11-15T17:21:03;11.70;99.90
41965;DHT22;50120;53.250;8.702;2022-11-15T17:23:29;11.60;99.90
41965;DHT22;50120;53.250;8.702;2022-11-15T17:26:01;11.70;99.90
41965;DHT22;50120;53.250;8.702;2022-11-15T17:28:33;11.60;99.90
41965;DHT22;50120;53.250;8.702;2022-11-15T17:30:58;11.60;99.90